This is the latest recevied weather packets stored in our database for station/object K6POO-1. If no packets are shown the sender has not sent any weather packets the latest 10 day(s).
| Time | Temp. | Humidity | Pressure | Rain* | Wind** | Luminosity | Snow |
|---|---|---|---|---|---|---|---|
| 1777608669 | 12.78° C | 81% | 1014.4 hPa | 0 mm | - | 0 W/m² | - |
| 1777608366 | 12.78° C | 81% | 1014.5 hPa | 0 mm | - | 0 W/m² | - |
| 1777608064 | 12.78° C | 80% | 1014.5 hPa | 0 mm | - | 0 W/m² | - |
| 1777607760 | 12.78° C | 80% | 1014.2 hPa | 0 mm | - | 0 W/m² | - |
| 1777607456 | 12.78° C | 80% | 1014.3 hPa | 0 mm | - | 0 W/m² | - |
| 1777607153 | 12.78° C | 81% | 1014.3 hPa | 0 mm | - | 0 W/m² | - |
| 1777606849 | 12.78° C | 80% | 1014.2 hPa | 0 mm | - | 0 W/m² | - |
| 1777606544 | 12.78° C | 80% | 1014 hPa | 0 mm | - | 0 W/m² | - |
| 1777606239 | 12.78° C | 79% | 1014.1 hPa | 0 mm | - | 0 W/m² | - |
| 1777605936 | 13.33° C | 80% | 1013.9 hPa | 0 mm | - | 0 W/m² | - |
| 1777605631 | 12.78° C | 80% | 1014 hPa | 0 mm | - | 0 W/m² | - |
| 1777605330 | 12.78° C | 80% | 1013.8 hPa | 0 mm | - | 0 W/m² | - |
| 1777605027 | 12.78° C | 81% | 1013.9 hPa | 0 mm | - | 1 W/m² | - |
| 1777604723 | 12.78° C | 80% | 1013.7 hPa | 0 mm | - | 2 W/m² | - |
| 1777603333 | 13.89° C | 75% | 1013.7 hPa | 0 mm | - | 19 W/m² | - |
| 1777603028 | 13.89° C | 75% | 1013.7 hPa | 0 mm | - | 19 W/m² | - |
| 1777602723 | 13.89° C | 74% | 1013.5 hPa | 0 mm | - | 21 W/m² | - |
| 1777602418 | 13.89° C | 74% | 1013.4 hPa | 0 mm | - | 25 W/m² | - |
| 1777602115 | 13.89° C | 73% | 1013.5 hPa | 0 mm | - | 28 W/m² | - |
| 1777601810 | 13.89° C | 73% | 1013.4 hPa | 0 mm | - | 31 W/m² | - |
| 1777601505 | 14.44° C | 72% | 1013.3 hPa | 0 mm | - | 34 W/m² | - |
| 1777601201 | 15° C | 71% | 1013.4 hPa | 0 mm | - | 37 W/m² | - |
| 1777600899 | 15.56° C | 68% | 1013.6 hPa | 0 mm | - | 43 W/m² | - |
| 1777600594 | 15.56° C | 68% | 1013.5 hPa | 0 mm | - | 46 W/m² | - |
| 1777600290 | 16.67° C | 66% | 1013.4 hPa | 0 mm | - | 50 W/m² | - |
* Rain latest hour (hover to see other rain measurements)
** Current wind speed in m/s (hover to see current wind gust speed)